createdAt,value
2017-12-15T00:00:53.646Z,994.13
2017-12-15T00:02:20.822Z,994.12
2017-12-15T00:03:47.949Z,994.16
2017-12-15T00:05:15.066Z,994.18
2017-12-15T00:06:42.228Z,994.18
2017-12-15T00:08:09.275Z,994.19
2017-12-15T00:09:36.398Z,994.20
2017-12-15T00:11:03.767Z,994.23
2017-12-15T00:12:31.114Z,994.23
2017-12-15T00:13:58.085Z,994.24
2017-12-15T00:15:25.288Z,994.26
2017-12-15T00:16:52.312Z,994.30
2017-12-15T00:18:19.547Z,994.33
2017-12-15T00:19:46.939Z,994.36
2017-12-15T00:21:14.126Z,994.35
2017-12-15T00:22:41.432Z,994.33
2017-12-15T00:24:08.691Z,994.32
2017-12-15T00:25:35.749Z,994.31
2017-12-15T00:27:03.102Z,994.32
2017-12-15T00:28:30.269Z,994.34
2017-12-15T00:29:57.507Z,994.35
2017-12-15T00:31:24.832Z,994.35
2017-12-15T00:32:52.103Z,994.33
2017-12-15T00:34:19.244Z,994.32
2017-12-15T00:35:46.520Z,994.32
2017-12-15T00:37:13.752Z,994.32
2017-12-15T00:38:41.299Z,994.33
2017-12-15T00:40:08.340Z,994.32
2017-12-15T00:41:35.441Z,994.34
2017-12-15T00:43:02.606Z,994.38
2017-12-15T00:44:29.880Z,994.40
2017-12-15T00:45:57.122Z,994.43
2017-12-15T00:47:24.444Z,994.42
2017-12-15T00:48:51.608Z,994.41
2017-12-15T00:50:18.753Z,994.41
2017-12-15T00:51:45.913Z,994.41
2017-12-15T00:53:13.087Z,994.42
2017-12-15T00:54:40.419Z,994.42
2017-12-15T00:56:07.584Z,994.43
2017-12-15T00:57:34.762Z,994.45
2017-12-15T00:59:01.970Z,994.49
2017-12-15T01:00:29.249Z,994.48
2017-12-15T01:01:56.620Z,994.49
2017-12-15T01:03:23.938Z,994.48
2017-12-15T01:04:51.129Z,994.53
2017-12-15T01:06:17.921Z,994.53
2017-12-15T01:07:45.195Z,994.56
2017-12-15T01:09:12.491Z,994.58
2017-12-15T01:10:39.783Z,994.60
2017-12-15T01:12:06.896Z,994.61
2017-12-15T01:13:34.207Z,994.61
2017-12-15T01:15:01.598Z,994.63
2017-12-15T01:16:28.912Z,994.66
2017-12-15T01:17:56.086Z,994.68
2017-12-15T01:19:23.231Z,994.73
2017-12-15T01:20:50.393Z,994.70
2017-12-15T01:22:17.705Z,994.74
2017-12-15T01:23:45.005Z,994.71
2017-12-15T01:25:12.259Z,994.76
2017-12-15T01:26:39.361Z,994.76
2017-12-15T01:28:06.539Z,994.77
2017-12-15T01:29:33.901Z,994.75
2017-12-15T01:31:01.101Z,994.75
2017-12-15T01:32:28.321Z,994.76
2017-12-15T01:33:55.415Z,994.79
2017-12-15T01:35:22.719Z,994.79
2017-12-15T01:36:50.058Z,994.77
2017-12-15T01:38:17.418Z,994.76
2017-12-15T01:39:44.646Z,994.76
2017-12-15T01:41:11.847Z,994.74
2017-12-15T01:42:39.013Z,994.77
2017-12-15T01:44:06.109Z,994.80
2017-12-15T01:45:33.352Z,994.79
2017-12-15T01:47:00.657Z,994.80
2017-12-15T01:48:27.839Z,994.78
2017-12-15T01:49:55.187Z,994.78
2017-12-15T01:51:22.474Z,994.79
2017-12-15T01:52:49.695Z,994.77
2017-12-15T01:54:16.874Z,994.76
2017-12-15T01:55:44.207Z,994.76
2017-12-15T01:57:11.485Z,994.78
2017-12-15T01:58:38.737Z,994.79
2017-12-15T02:00:05.939Z,994.81
2017-12-15T02:01:33.225Z,994.84
2017-12-15T02:03:00.722Z,994.80
2017-12-15T02:04:27.713Z,994.75
2017-12-15T02:05:55.013Z,994.74
2017-12-15T02:07:22.361Z,994.77
2017-12-15T02:08:49.377Z,994.75
2017-12-15T02:10:16.643Z,994.77
2017-12-15T02:11:43.875Z,994.75
2017-12-15T02:13:11.164Z,994.76
2017-12-15T02:14:38.582Z,994.74
2017-12-15T02:16:05.510Z,994.75
2017-12-15T02:17:32.806Z,994.77
2017-12-15T02:19:00.175Z,994.81
2017-12-15T02:20:27.158Z,994.80
2017-12-15T02:21:54.328Z,994.82
2017-12-15T02:23:21.699Z,994.80
2017-12-15T02:24:48.875Z,994.80
2017-12-15T02:26:16.196Z,994.81
2017-12-15T02:27:43.487Z,994.82
2017-12-15T02:29:10.601Z,994.78
2017-12-15T02:30:37.920Z,994.76
2017-12-15T02:32:04.774Z,994.72
2017-12-15T02:33:31.961Z,994.74
2017-12-15T02:34:59.223Z,994.74
2017-12-15T02:36:26.500Z,994.76
2017-12-15T02:37:53.854Z,994.79
2017-12-15T02:39:21.317Z,994.80
2017-12-15T02:40:48.501Z,994.81
2017-12-15T02:42:15.731Z,994.82
2017-12-15T02:43:42.861Z,994.80
2017-12-15T02:45:10.170Z,994.82
2017-12-15T02:46:37.466Z,994.82
2017-12-15T02:48:04.673Z,994.82
2017-12-15T02:49:31.909Z,994.86
2017-12-15T02:50:59.243Z,994.89
2017-12-15T02:52:26.411Z,994.90
2017-12-15T02:53:53.632Z,994.90
2017-12-15T02:55:20.615Z,994.89
2017-12-15T02:56:47.538Z,994.88
2017-12-15T02:58:14.650Z,994.89
2017-12-15T02:59:42.108Z,994.94
2017-12-15T03:01:09.258Z,994.92
2017-12-15T03:02:36.031Z,994.90
2017-12-15T03:04:03.284Z,994.89
2017-12-15T03:05:30.565Z,994.90
2017-12-15T03:06:57.960Z,994.92
2017-12-15T03:08:25.287Z,994.93
2017-12-15T03:09:52.520Z,994.94
2017-12-15T03:11:19.918Z,994.95
2017-12-15T03:12:47.015Z,994.94
2017-12-15T03:14:14.285Z,995.00
2017-12-15T03:15:41.488Z,995.02
2017-12-15T03:17:08.681Z,995.09
2017-12-15T03:18:35.988Z,995.11
2017-12-15T03:20:03.328Z,995.13
2017-12-15T03:21:30.493Z,995.15
2017-12-15T03:22:57.718Z,995.21
2017-12-15T03:24:25.003Z,995.18
2017-12-15T03:25:52.138Z,995.19
2017-12-15T03:27:19.406Z,995.19
2017-12-15T03:28:46.399Z,995.20
2017-12-15T03:30:13.625Z,995.22
2017-12-15T03:31:40.761Z,995.24
2017-12-15T03:33:08.055Z,995.24
2017-12-15T03:34:35.063Z,995.23
2017-12-15T03:36:02.381Z,995.22
2017-12-15T03:37:29.695Z,995.21
2017-12-15T03:38:56.895Z,995.20
2017-12-15T03:40:24.117Z,995.21
2017-12-15T03:41:51.496Z,995.22
2017-12-15T03:43:18.506Z,995.23
2017-12-15T03:44:45.810Z,995.22
2017-12-15T03:46:13.000Z,995.25
2017-12-15T03:47:40.146Z,995.26
2017-12-15T03:49:07.315Z,995.30
2017-12-15T03:50:34.577Z,995.33
2017-12-15T03:52:01.812Z,995.31
2017-12-15T03:53:29.071Z,995.33
2017-12-15T03:54:56.370Z,995.33
2017-12-15T03:56:23.728Z,995.35
2017-12-15T03:57:51.003Z,995.35
2017-12-15T03:59:18.437Z,995.32
2017-12-15T04:00:45.614Z,995.28
2017-12-15T04:02:12.746Z,995.29
2017-12-15T04:03:39.731Z,995.27
2017-12-15T04:05:07.171Z,995.30
2017-12-15T04:06:34.335Z,995.30
2017-12-15T04:08:01.674Z,995.27
2017-12-15T04:09:29.110Z,995.27
2017-12-15T04:10:56.352Z,995.27
2017-12-15T04:12:23.602Z,995.29
2017-12-15T04:13:50.924Z,995.31
2017-12-15T04:15:18.076Z,995.35
2017-12-15T04:16:45.308Z,995.37
2017-12-15T04:18:12.518Z,995.37
2017-12-15T04:19:39.815Z,995.37
2017-12-15T04:21:07.075Z,995.40
2017-12-15T04:22:34.389Z,995.38
2017-12-15T04:24:01.536Z,995.38
2017-12-15T04:25:28.636Z,995.40
2017-12-15T04:26:55.712Z,995.41
2017-12-15T04:28:23.045Z,995.44
2017-12-15T04:29:50.306Z,995.42
2017-12-15T04:31:17.575Z,995.43
2017-12-15T04:32:44.950Z,995.44
2017-12-15T04:34:12.251Z,995.41
2017-12-15T04:35:39.376Z,995.43
2017-12-15T04:37:06.625Z,995.46
2017-12-15T04:38:33.904Z,995.46
2017-12-15T04:40:01.108Z,995.47
2017-12-15T04:41:28.227Z,995.49
2017-12-15T04:42:55.444Z,995.49
2017-12-15T04:44:22.688Z,995.50
2017-12-15T04:45:49.954Z,995.52
2017-12-15T04:47:16.910Z,995.53
2017-12-15T04:48:44.154Z,995.55
2017-12-15T04:50:11.635Z,995.57
2017-12-15T04:51:38.714Z,995.57
2017-12-15T04:53:05.921Z,995.57
2017-12-15T04:54:33.097Z,995.58
2017-12-15T04:56:00.507Z,995.60
2017-12-15T04:57:27.729Z,995.60
2017-12-15T04:58:55.090Z,995.58
2017-12-15T05:00:22.498Z,995.60
2017-12-15T05:01:49.651Z,995.59
2017-12-15T05:03:16.880Z,995.61
2017-12-15T05:04:43.883Z,995.62
2017-12-15T05:06:11.315Z,995.63
2017-12-15T05:07:38.393Z,995.63
2017-12-15T05:09:05.531Z,995.61
2017-12-15T05:10:32.606Z,995.62
2017-12-15T05:11:59.930Z,995.61
2017-12-15T05:13:27.194Z,995.63
2017-12-15T05:14:54.387Z,995.63
2017-12-15T05:16:21.789Z,995.65
2017-12-15T05:17:48.798Z,995.63
2017-12-15T05:19:16.085Z,995.62
2017-12-15T05:20:43.280Z,995.62
2017-12-15T05:22:10.465Z,995.61
2017-12-15T05:23:37.476Z,995.62
2017-12-15T05:25:04.761Z,995.64
2017-12-15T05:26:32.075Z,995.64
2017-12-15T05:27:59.289Z,995.65
2017-12-15T05:29:26.539Z,995.65
2017-12-15T05:30:54.027Z,995.66
2017-12-15T05:32:21.499Z,995.64
2017-12-15T05:33:48.443Z,995.66
2017-12-15T05:35:15.815Z,995.65
2017-12-15T05:36:42.998Z,995.66
2017-12-15T05:38:10.235Z,995.64
2017-12-15T05:39:37.398Z,995.62
2017-12-15T05:41:04.744Z,995.61
2017-12-15T05:42:31.838Z,995.60
2017-12-15T05:43:59.172Z,995.62
2017-12-15T05:45:26.266Z,995.67
2017-12-15T05:46:53.518Z,995.66
2017-12-15T05:48:20.888Z,995.66
2017-12-15T05:49:48.102Z,995.66
2017-12-15T05:51:15.223Z,995.67
2017-12-15T05:52:42.464Z,995.69
2017-12-15T05:54:09.786Z,995.71
2017-12-15T05:55:37.038Z,995.73
2017-12-15T05:57:04.359Z,995.74
2017-12-15T05:58:31.580Z,995.77
2017-12-15T05:59:58.833Z,995.81
2017-12-15T06:01:26.177Z,995.80
2017-12-15T06:02:53.260Z,995.81
2017-12-15T06:04:20.577Z,995.80
2017-12-15T06:05:47.804Z,995.80
2017-12-15T06:07:15.065Z,995.84
2017-12-15T06:08:42.221Z,995.85
2017-12-15T06:10:09.295Z,995.83
2017-12-15T06:11:36.522Z,995.84
2017-12-15T06:13:03.662Z,995.87
2017-12-15T06:14:31.003Z,995.92
2017-12-15T06:15:58.400Z,995.93
2017-12-15T06:17:25.433Z,995.96
2017-12-15T06:18:52.783Z,995.96
2017-12-15T06:20:19.893Z,996.02
2017-12-15T06:21:47.216Z,996.06
2017-12-15T06:23:14.577Z,996.08
2017-12-15T06:24:41.912Z,996.08
2017-12-15T06:26:08.867Z,996.07
2017-12-15T06:27:35.973Z,996.09
2017-12-15T06:29:03.160Z,996.12
2017-12-15T06:30:30.372Z,996.13
2017-12-15T06:31:57.407Z,996.16
2017-12-15T06:33:24.561Z,996.21
2017-12-15T06:34:51.716Z,996.23
2017-12-15T06:36:18.977Z,996.22
2017-12-15T06:37:46.141Z,996.24
2017-12-15T06:39:13.358Z,996.27
2017-12-15T06:40:40.166Z,996.29
2017-12-15T06:42:07.511Z,996.35
2017-12-15T06:43:34.731Z,996.35
2017-12-15T06:45:01.890Z,996.38
2017-12-15T06:46:29.228Z,996.40
2017-12-15T06:47:56.518Z,996.40
2017-12-15T06:49:23.727Z,996.42
2017-12-15T06:50:50.933Z,996.48
2017-12-15T06:52:18.223Z,996.50
2017-12-15T06:53:45.232Z,996.50
2017-12-15T06:55:12.515Z,996.52
2017-12-15T06:56:39.592Z,996.54
2017-12-15T06:58:06.912Z,996.56
2017-12-15T06:59:34.279Z,996.55
2017-12-15T07:01:01.625Z,996.60
2017-12-15T07:02:28.956Z,996.61
2017-12-15T07:03:56.038Z,996.64
2017-12-15T07:05:23.420Z,996.66
2017-12-15T07:06:50.311Z,996.68
2017-12-15T07:08:17.704Z,996.72
2017-12-15T07:09:44.722Z,996.75
2017-12-15T07:11:11.923Z,996.77
2017-12-15T07:12:39.221Z,996.77
2017-12-15T07:14:06.310Z,996.79
2017-12-15T07:15:33.562Z,996.80
2017-12-15T07:17:00.748Z,996.85
2017-12-15T07:18:27.956Z,996.87
2017-12-15T07:19:55.318Z,996.92
2017-12-15T07:21:22.299Z,996.95
2017-12-15T07:22:49.595Z,996.94
2017-12-15T07:24:16.739Z,996.93
2017-12-15T07:25:44.149Z,996.92
2017-12-15T07:27:11.365Z,996.94
2017-12-15T07:28:38.563Z,996.93
2017-12-15T07:30:05.730Z,996.93
2017-12-15T07:31:32.842Z,996.95
2017-12-15T07:33:00.130Z,996.95
2017-12-15T07:34:27.453Z,996.95
2017-12-15T07:35:54.709Z,996.98
2017-12-15T07:37:21.865Z,997.00
2017-12-15T07:38:49.118Z,996.99
2017-12-15T07:40:16.421Z,997.06
2017-12-15T07:41:43.719Z,997.07
2017-12-15T07:43:10.943Z,997.09
2017-12-15T07:44:38.228Z,997.11
2017-12-15T07:46:05.475Z,997.10
2017-12-15T07:47:32.658Z,997.13
2017-12-15T07:48:59.750Z,997.14
2017-12-15T07:50:27.131Z,997.12
2017-12-15T07:51:54.468Z,997.12
2017-12-15T07:53:21.883Z,997.13
2017-12-15T07:54:48.991Z,997.14
2017-12-15T07:56:16.068Z,997.11
2017-12-15T07:57:43.217Z,997.12
2017-12-15T07:59:10.475Z,997.13
2017-12-15T08:00:37.611Z,997.12
2017-12-15T08:02:08.040Z,997.12
2017-12-15T08:03:32.087Z,997.12
2017-12-15T08:04:59.428Z,997.17
2017-12-15T08:06:26.678Z,997.21
2017-12-15T08:07:53.831Z,997.24
2017-12-15T08:09:20.666Z,997.22
2017-12-15T08:10:47.810Z,997.25
2017-12-15T08:12:14.873Z,997.24
2017-12-15T08:13:41.880Z,997.26
2017-12-15T08:15:09.022Z,997.25
2017-12-15T08:16:35.952Z,997.26
2017-12-15T08:18:03.272Z,997.27
2017-12-15T08:19:30.685Z,997.27
2017-12-15T08:20:58.023Z,997.30
2017-12-15T08:22:25.039Z,997.31
2017-12-15T08:23:52.467Z,997.29
2017-12-15T08:25:19.430Z,997.29
2017-12-15T08:26:46.780Z,997.29
2017-12-15T08:28:13.835Z,997.32
2017-12-15T08:29:41.090Z,997.37
2017-12-15T08:31:08.320Z,997.39
2017-12-15T08:32:35.401Z,997.41
2017-12-15T08:34:02.439Z,997.44
2017-12-15T08:35:29.747Z,997.45
2017-12-15T08:36:56.873Z,997.46
2017-12-15T08:38:24.192Z,997.45
2017-12-15T08:39:51.495Z,997.52
2017-12-15T08:41:18.722Z,997.52
2017-12-15T08:42:45.781Z,997.54
2017-12-15T08:44:13.137Z,997.55
2017-12-15T08:45:40.198Z,997.55
2017-12-15T08:47:07.246Z,997.54
2017-12-15T08:48:34.537Z,997.57
2017-12-15T08:50:01.689Z,997.61
2017-12-15T08:51:29.081Z,997.64
2017-12-15T08:52:56.362Z,997.66
2017-12-15T08:54:23.501Z,997.69
2017-12-15T08:55:50.827Z,997.72
2017-12-15T08:57:18.250Z,997.73
2017-12-15T08:58:45.424Z,997.75
2017-12-15T09:00:12.696Z,997.77
2017-12-15T09:01:39.930Z,997.81
2017-12-15T09:03:07.079Z,997.84
2017-12-15T09:04:34.273Z,997.87
2017-12-15T09:06:01.598Z,997.90
2017-12-15T09:07:28.703Z,997.90
2017-12-15T09:08:55.882Z,997.93
2017-12-15T09:10:23.170Z,997.94
2017-12-15T09:11:50.337Z,997.98
2017-12-15T09:13:17.549Z,998.01
2017-12-15T09:14:44.632Z,998.03
2017-12-15T09:16:12.004Z,998.05
2017-12-15T09:17:39.047Z,998.05
2017-12-15T09:19:06.059Z,998.07
2017-12-15T09:20:33.193Z,998.07
2017-12-15T09:22:00.402Z,998.10
2017-12-15T09:23:27.625Z,998.13
2017-12-15T09:24:54.734Z,998.17
2017-12-15T09:26:21.928Z,998.19
2017-12-15T09:27:49.302Z,998.20
2017-12-15T09:29:16.623Z,998.21
2017-12-15T09:30:43.753Z,998.22
2017-12-15T09:32:11.096Z,998.21
2017-12-15T09:33:38.182Z,998.21
2017-12-15T09:35:05.099Z,998.20
2017-12-15T09:36:32.431Z,998.23
2017-12-15T09:37:59.507Z,998.21
2017-12-15T09:39:26.891Z,998.21
2017-12-15T09:40:54.190Z,998.18
2017-12-15T09:42:21.439Z,998.21
2017-12-15T09:43:48.748Z,998.21
2017-12-15T09:45:15.683Z,998.24
2017-12-15T09:46:42.878Z,998.25
2017-12-15T09:48:09.940Z,998.26
2017-12-15T09:49:37.155Z,998.32
2017-12-15T09:51:04.253Z,998.31
2017-12-15T09:52:31.282Z,998.32
2017-12-15T09:53:58.376Z,998.32
2017-12-15T09:55:25.396Z,998.32
2017-12-15T09:56:52.492Z,998.34
2017-12-15T09:58:19.706Z,998.37
2017-12-15T09:59:47.154Z,998.34
2017-12-15T10:01:14.272Z,998.34
2017-12-15T10:02:41.347Z,998.34
2017-12-15T10:04:08.621Z,998.37
2017-12-15T10:05:35.780Z,998.35
2017-12-15T10:07:03.049Z,998.37
2017-12-15T10:08:30.434Z,998.36
2017-12-15T10:09:57.647Z,998.38
2017-12-15T10:11:24.959Z,998.38
2017-12-15T10:12:52.109Z,998.41
2017-12-15T10:14:19.383Z,998.41
2017-12-15T10:15:46.331Z,998.43
2017-12-15T10:17:13.618Z,998.44
2017-12-15T10:18:40.737Z,998.45
2017-12-15T10:20:07.925Z,998.47
2017-12-15T10:21:35.168Z,998.50
2017-12-15T10:23:02.506Z,998.48
2017-12-15T10:24:29.694Z,998.47
2017-12-15T10:25:56.980Z,998.49
2017-12-15T10:27:24.283Z,998.47
2017-12-15T10:28:51.408Z,998.47
2017-12-15T10:30:18.739Z,998.47
2017-12-15T10:31:45.869Z,998.45
2017-12-15T10:33:13.072Z,998.49
2017-12-15T10:34:40.178Z,998.49
2017-12-15T10:36:07.469Z,998.51
2017-12-15T10:37:34.750Z,998.52
2017-12-15T10:39:02.051Z,998.56
2017-12-15T10:40:29.404Z,998.59
2017-12-15T10:41:56.696Z,998.61
2017-12-15T10:43:23.760Z,998.61
2017-12-15T10:44:50.975Z,998.62
2017-12-15T10:46:18.019Z,998.61
2017-12-15T10:47:45.343Z,998.61
2017-12-15T10:49:12.642Z,998.63
2017-12-15T10:50:39.867Z,998.64
2017-12-15T10:52:06.930Z,998.63
2017-12-15T10:53:34.351Z,998.62
2017-12-15T10:55:01.615Z,998.61
2017-12-15T10:56:28.608Z,998.59
2017-12-15T10:57:55.929Z,998.63
2017-12-15T10:59:23.092Z,998.64
2017-12-15T11:00:50.203Z,998.66
2017-12-15T11:02:17.436Z,998.66
2017-12-15T11:03:44.520Z,998.64
2017-12-15T11:05:11.685Z,998.67
2017-12-15T11:06:38.853Z,998.67
2017-12-15T11:08:06.067Z,998.65
2017-12-15T11:09:33.390Z,998.67
2017-12-15T11:11:00.572Z,998.69
2017-12-15T11:12:27.904Z,998.71
2017-12-15T11:13:55.219Z,998.72
2017-12-15T11:15:22.388Z,998.68
2017-12-15T11:16:49.404Z,998.69
2017-12-15T11:18:16.542Z,998.69
2017-12-15T11:19:43.681Z,998.69
2017-12-15T11:21:10.786Z,998.74
2017-12-15T11:22:37.957Z,998.73
2017-12-15T11:24:04.951Z,998.74
2017-12-15T11:25:32.073Z,998.72
2017-12-15T11:26:59.666Z,998.72
2017-12-15T11:28:26.858Z,998.72
2017-12-15T11:29:54.176Z,998.75
2017-12-15T11:31:21.442Z,998.75
2017-12-15T11:32:48.604Z,998.78
2017-12-15T11:34:15.972Z,998.79
2017-12-15T11:35:43.335Z,998.79
2017-12-15T11:37:10.532Z,998.82
2017-12-15T11:38:37.721Z,998.84
2017-12-15T11:40:05.122Z,998.88
2017-12-15T11:41:32.443Z,998.92
2017-12-15T11:42:59.688Z,998.92
2017-12-15T11:44:27.069Z,998.93
2017-12-15T11:45:54.409Z,998.94
2017-12-15T11:47:21.738Z,998.96
2017-12-15T11:48:49.039Z,998.98
2017-12-15T11:50:16.252Z,998.98
2017-12-15T11:51:43.477Z,998.98
2017-12-15T11:53:10.774Z,998.98
2017-12-15T11:54:38.000Z,999.00
2017-12-15T11:56:04.910Z,998.99
2017-12-15T11:57:32.085Z,998.97
2017-12-15T11:58:59.271Z,998.95
2017-12-15T12:00:26.571Z,998.97
2017-12-15T12:01:53.750Z,999.02
2017-12-15T12:03:21.027Z,999.01
2017-12-15T12:04:48.290Z,999.04
2017-12-15T12:06:15.481Z,999.03
2017-12-15T12:07:42.774Z,999.05
2017-12-15T12:09:10.025Z,999.04
2017-12-15T12:10:37.108Z,999.04
2017-12-15T12:12:04.466Z,999.01
2017-12-15T12:13:31.700Z,999.01
2017-12-15T12:14:58.664Z,999.01
2017-12-15T12:16:25.966Z,999.04
2017-12-15T12:17:53.134Z,999.03
2017-12-15T12:19:20.342Z,999.01
2017-12-15T12:20:47.649Z,999.02
2017-12-15T12:22:14.853Z,999.06
2017-12-15T12:23:42.104Z,999.06
2017-12-15T12:25:09.491Z,999.07
2017-12-15T12:26:36.585Z,999.08
2017-12-15T12:28:03.755Z,999.10
2017-12-15T12:29:30.985Z,999.13
2017-12-15T12:30:58.150Z,999.16
2017-12-15T12:32:25.501Z,999.18
2017-12-15T12:33:52.820Z,999.18
2017-12-15T12:35:20.004Z,999.21
2017-12-15T12:36:47.138Z,999.21
2017-12-15T12:38:14.405Z,999.24
2017-12-15T12:39:41.575Z,999.26
2017-12-15T12:41:08.660Z,999.27
2017-12-15T12:42:35.961Z,999.29
2017-12-15T12:44:03.198Z,999.31
2017-12-15T12:45:30.494Z,999.28
2017-12-15T12:46:57.735Z,999.28
2017-12-15T12:48:25.137Z,999.30
2017-12-15T12:49:52.480Z,999.32
2017-12-15T12:51:19.733Z,999.34
2017-12-15T12:52:47.191Z,999.30
2017-12-15T12:54:14.383Z,999.29
2017-12-15T12:55:41.632Z,999.25
2017-12-15T12:57:08.889Z,999.27
2017-12-15T12:58:36.134Z,999.27
2017-12-15T13:00:03.519Z,999.28
2017-12-15T13:01:30.583Z,999.28
2017-12-15T13:02:57.898Z,999.30
2017-12-15T13:04:25.092Z,999.28
2017-12-15T13:05:52.389Z,999.31
2017-12-15T13:07:19.689Z,999.35
2017-12-15T13:08:47.103Z,999.35
2017-12-15T13:10:14.340Z,999.37
2017-12-15T13:11:41.574Z,999.39
2017-12-15T13:13:08.823Z,999.41
2017-12-15T13:14:35.876Z,999.45
2017-12-15T13:16:02.952Z,999.45
2017-12-15T13:17:30.276Z,999.48
2017-12-15T13:18:57.327Z,999.49
2017-12-15T13:20:24.702Z,999.50
2017-12-15T13:21:51.991Z,999.51
2017-12-15T13:23:19.267Z,999.55
2017-12-15T13:24:46.264Z,999.57
2017-12-15T13:26:13.235Z,999.61
2017-12-15T13:27:40.484Z,999.63
2017-12-15T13:29:07.828Z,999.65
2017-12-15T13:30:34.720Z,999.65
2017-12-15T13:32:02.085Z,999.66
2017-12-15T13:33:29.342Z,999.68
2017-12-15T13:34:56.564Z,999.69
2017-12-15T13:36:23.821Z,999.71
2017-12-15T13:37:51.078Z,999.73
2017-12-15T13:39:18.467Z,999.70
2017-12-15T13:40:45.724Z,999.68
2017-12-15T13:42:13.112Z,999.68
2017-12-15T13:43:40.348Z,999.65
2017-12-15T13:45:07.506Z,999.68
2017-12-15T13:46:34.831Z,999.69
2017-12-15T13:48:02.095Z,999.66
2017-12-15T13:49:29.392Z,999.70
2017-12-15T13:50:56.438Z,999.71
2017-12-15T13:52:23.813Z,999.72
2017-12-15T13:53:50.956Z,999.76
2017-12-15T13:55:18.229Z,999.81
2017-12-15T13:56:45.467Z,999.80
2017-12-15T13:58:12.819Z,999.82
2017-12-15T13:59:40.079Z,999.86
2017-12-15T14:01:07.313Z,999.87
2017-12-15T14:02:34.666Z,999.90
2017-12-15T14:04:01.919Z,999.93
2017-12-15T14:05:29.099Z,999.95
2017-12-15T14:06:56.372Z,999.97
2017-12-15T14:08:23.802Z,999.94
2017-12-15T14:09:50.987Z,999.99
2017-12-15T14:11:18.233Z,999.98
2017-12-15T14:12:45.470Z,1000.01
2017-12-15T14:14:12.690Z,1000.00
2017-12-15T14:15:39.759Z,1000.05
2017-12-15T14:17:06.940Z,1000.06
2017-12-15T14:18:34.230Z,1000.09
2017-12-15T14:20:01.010Z,1000.14
2017-12-15T14:21:28.157Z,1000.14
2017-12-15T14:22:55.357Z,1000.17
2017-12-15T14:24:22.545Z,1000.18
2017-12-15T14:25:49.631Z,1000.20
2017-12-15T14:27:16.837Z,1000.19
2017-12-15T14:28:43.977Z,1000.21
2017-12-15T14:30:11.330Z,1000.22
2017-12-15T14:31:38.672Z,1000.24
2017-12-15T14:33:05.804Z,1000.25
2017-12-15T14:34:32.986Z,1000.28
2017-12-15T14:36:00.116Z,1000.30
2017-12-15T14:37:27.420Z,1000.34
2017-12-15T14:38:54.744Z,1000.35
2017-12-15T14:40:22.011Z,1000.33
2017-12-15T14:41:49.250Z,1000.37
2017-12-15T14:43:16.531Z,1000.40
2017-12-15T14:44:43.729Z,1000.41
2017-12-15T14:46:11.108Z,1000.44
2017-12-15T14:47:38.251Z,1000.42
2017-12-15T14:49:05.175Z,1000.44
2017-12-15T14:50:32.521Z,1000.45
2017-12-15T14:51:59.782Z,1000.46
2017-12-15T14:53:26.988Z,1000.49
2017-12-15T14:54:54.204Z,1000.49
2017-12-15T14:56:21.302Z,1000.50
2017-12-15T14:57:48.351Z,1000.53
2017-12-15T14:59:15.552Z,1000.56
2017-12-15T15:00:42.823Z,1000.56
2017-12-15T15:02:10.185Z,1000.59
2017-12-15T15:03:37.365Z,1000.60
2017-12-15T15:05:04.598Z,1000.59
2017-12-15T15:06:32.089Z,1000.60
2017-12-15T15:07:59.133Z,1000.61
2017-12-15T15:09:26.386Z,1000.66
2017-12-15T15:10:53.669Z,1000.66
2017-12-15T15:12:20.976Z,1000.66
2017-12-15T15:13:48.161Z,1000.66
2017-12-15T15:15:15.511Z,1000.69
2017-12-15T15:16:42.618Z,1000.69
2017-12-15T15:18:09.878Z,1000.72
2017-12-15T15:19:36.931Z,1000.72
2017-12-15T15:21:04.103Z,1000.73
2017-12-15T15:22:31.428Z,1000.72
2017-12-15T15:23:58.501Z,1000.77
2017-12-15T15:25:25.584Z,1000.75
2017-12-15T15:26:52.820Z,1000.76
2017-12-15T15:28:20.316Z,1000.79
2017-12-15T15:29:47.712Z,1000.77
2017-12-15T15:31:14.890Z,1000.79
2017-12-15T15:32:42.186Z,1000.81
2017-12-15T15:34:09.427Z,1000.83
2017-12-15T15:35:36.798Z,1000.80
2017-12-15T15:37:03.982Z,1000.84
2017-12-15T15:38:31.382Z,1000.85
2017-12-15T15:39:58.770Z,1000.86
2017-12-15T15:41:26.037Z,1000.90
2017-12-15T15:42:53.456Z,1000.93
2017-12-15T15:44:20.859Z,1000.94
2017-12-15T15:45:48.106Z,1000.96
2017-12-15T15:47:15.312Z,1000.99
2017-12-15T15:48:42.682Z,1001.03
2017-12-15T15:50:09.816Z,1001.05
2017-12-15T15:51:37.093Z,1001.08
2017-12-15T15:53:04.540Z,1001.11
2017-12-15T15:54:31.752Z,1001.12
2017-12-15T15:55:59.074Z,1001.12
2017-12-15T15:57:26.245Z,1001.11
2017-12-15T15:58:53.567Z,1001.14
2017-12-15T16:00:20.829Z,1001.14
2017-12-15T16:01:48.028Z,1001.14
2017-12-15T16:03:15.173Z,1001.17
2017-12-15T16:04:42.518Z,1001.17
2017-12-15T16:06:09.657Z,1001.19
2017-12-15T16:07:36.668Z,1001.18
2017-12-15T16:09:04.231Z,1001.17
2017-12-15T16:10:31.520Z,1001.16
2017-12-15T16:11:58.677Z,1001.14
2017-12-15T16:13:25.836Z,1001.13
2017-12-15T16:14:53.206Z,1001.12
2017-12-15T16:16:20.336Z,1001.10
2017-12-15T16:17:47.717Z,1001.12
2017-12-15T16:19:14.824Z,1001.12
2017-12-15T16:20:42.198Z,1001.12
2017-12-15T16:22:09.394Z,1001.11
2017-12-15T16:23:36.605Z,1001.12
2017-12-15T16:25:03.867Z,1001.15
2017-12-15T16:26:31.402Z,1001.14
2017-12-15T16:27:58.470Z,1001.17
2017-12-15T16:29:25.834Z,1001.20
2017-12-15T16:30:52.955Z,1001.21
2017-12-15T16:32:20.271Z,1001.20
2017-12-15T16:33:47.711Z,1001.23
2017-12-15T16:35:14.781Z,1001.25
2017-12-15T16:36:42.051Z,1001.26
2017-12-15T16:38:09.162Z,1001.30
2017-12-15T16:39:36.408Z,1001.34
2017-12-15T16:41:03.536Z,1001.33
2017-12-15T16:42:30.780Z,1001.34
2017-12-15T16:43:58.167Z,1001.35
2017-12-15T16:45:25.404Z,1001.38
2017-12-15T16:46:52.481Z,1001.40
2017-12-15T16:48:19.808Z,1001.43
2017-12-15T16:49:47.027Z,1001.45
2017-12-15T16:51:14.380Z,1001.46
2017-12-15T16:52:41.386Z,1001.49
2017-12-15T16:54:08.609Z,1001.52
2017-12-15T16:55:35.820Z,1001.54
2017-12-15T16:57:03.037Z,1001.54
2017-12-15T16:58:30.450Z,1001.54
2017-12-15T16:59:57.713Z,1001.51
2017-12-15T17:01:25.083Z,1001.52
2017-12-15T17:02:52.382Z,1001.52
2017-12-15T17:04:19.627Z,1001.53
2017-12-15T17:05:46.900Z,1001.53
2017-12-15T17:07:14.132Z,1001.53
2017-12-15T17:08:41.411Z,1001.54
2017-12-15T17:10:08.684Z,1001.51
2017-12-15T17:11:35.875Z,1001.53
2017-12-15T17:13:03.026Z,1001.54
2017-12-15T17:14:30.263Z,1001.55
2017-12-15T17:15:57.598Z,1001.55
2017-12-15T17:17:24.713Z,1001.54
2017-12-15T17:18:51.985Z,1001.52
2017-12-15T17:20:19.307Z,1001.54
2017-12-15T17:21:46.549Z,1001.54
2017-12-15T17:23:13.660Z,1001.55
2017-12-15T17:24:40.895Z,1001.57
2017-12-15T17:26:08.352Z,1001.57
2017-12-15T17:27:35.382Z,1001.57
2017-12-15T17:29:02.603Z,1001.60
2017-12-15T17:30:29.832Z,1001.60
2017-12-15T17:31:57.037Z,1001.61
2017-12-15T17:33:24.216Z,1001.64
2017-12-15T17:34:51.600Z,1001.65
2017-12-15T17:36:18.850Z,1001.68
2017-12-15T17:37:46.169Z,1001.70
2017-12-15T17:39:13.422Z,1001.73
2017-12-15T17:40:40.576Z,1001.73
2017-12-15T17:42:07.678Z,1001.75
2017-12-15T17:43:34.761Z,1001.77
2017-12-15T17:45:01.882Z,1001.77
2017-12-15T17:46:28.986Z,1001.78
2017-12-15T17:47:56.124Z,1001.78
2017-12-15T17:49:23.240Z,1001.80
2017-12-15T17:50:50.561Z,1001.82
2017-12-15T17:52:17.787Z,1001.85
2017-12-15T17:53:45.023Z,1001.88
2017-12-15T17:55:12.168Z,1001.90
2017-12-15T17:56:39.460Z,1001.96
2017-12-15T17:58:06.626Z,1002.00
2017-12-15T17:59:34.016Z,1002.03
2017-12-15T18:01:01.306Z,1002.03